Hovedside
METAR-TAF:

METAR-TAF

Lufthavner :

Cairns, Australia

breddegrad: 16-53S, lengdegrad: 145-45E, høyde over havet: 3 m

Gjeldene værobservasjon

Denne rapporten ble laget for 21 minutter siden, klokken 02:00 UTC
Vind 10 kt fra Øst
Temperatur 28°C
Luftfuktighet 74%
Trykk 1007 hPa
Sikt 10 km eller mer
Få skyer i en høyde av 2800 ft
Brutte skyer i en høyde av 4000 ft

METAR: YBCS 220200Z 10010KT 9999 FEW028 BKN040 28/23 Q1007 TEMPO 0400/0500 3000 SHRA BKN015

Tid: 12:21 (02:21 UTC)

Varsel

Denne rapporten ble laget for 2 timer og 34 minutter siden, klokken 23:47 UTC
Varsel gyldig fra 22. klokken 00 UTC til 22. klokken 24 UTC
Vind 13 kt fra Sørøst
Sikt 10 km eller mer
Spredte skyer i en høyde av 2800 ft
Brutte skyer i en høyde av 4500 ft
Fra 22. klokken 0800 UTC
Vind 8 kt fra Sør
Sikt 10 km eller mer
Spredte skyer i en høyde av 2300 ft
Brutte skyer i en høyde av 4000 ft
lette regnbyger

TAF: YBCS 212347Z 2200/2224 14013KT 9999 SCT028 BKN045 FM220800 17008KT 9999 -SHRA SCT023 BKN040

Værobservasjoner og værvarsel for over 4000 flyplasser (METAR- og TAF-rapporter).

Tilgjengelige stasjoner er representert av de røde og gule prikkene på kartet.

Hold musepekeren over prikken for å se navnet på stasjonen.

Klikk så for å se værobservasjoner og -varsler.

For å forandre kartet kan du klikke på den grønne knappen med svart kryss for å zoome inn, på den grønne knappen med strek for å zoome ut, eller på de grønne pilene for å se tilstøtende kart.


METAR-TAF: